首页
METAR-TAF:

METAR-TAF

机场 :

库格鲁克图克, 努那武特, 加拿大

纬度: 67-49N, 经度: 115-08W, 海拔: 22米

当前天气观测

该预报发布于7分钟前的12:15 UTC
风速13节,风向北转东北,有时为19节阵风
温度 -8°C
湿度 92%
气压 1016 hPa
能見度: 24.1公里
阴天层高于900英尺
小雪

METAR: CYCO 201215Z 02013G19KT 15SM -SN OVC009 M08/M09 A3001 RMK SC8 SLP165

时间: 06:22 (12:22 UTC)

预报

该预报发布于5小时和31分钟前的06:51 UTC
预报有效从20日的 07点(UTC)到 20日的 19点(UTC)
风速15节,风向北转东北
能見度: 10公里
多云层高于1500英尺
短暂存在
从 20日的 07点(UTC)到 20日的 19点(UTC)
能見度: 10公里
阴天层高于900英尺
小雪, 米雪

TAF: CYCO 200651Z 2007/2019 02015KT P6SM BKN015 TEMPO 2007/2019 P6SM -SNSG OVC009 RMK NXT FCST BY 201300Z

超过4000个机场的气象观测和天气预报(METAR&TAF报告)。

可查询的气象台以黄色和红色小点在地图上表示。

将鼠标移到小点上方,可查看气象台名称。

然后点击查看天气观测和预报。

如需切换地图:点击带黑十字的绿色按钮放大地图;点击带横线的绿色按钮缩小地图;或者点击绿色箭头查看邻近地区的地图。


METAR-TAF: